Portada
METAR-TAF:

METAR-TAF

Aeroports :

Sint Maarten, Antilles Neerlandeses

latitud: 18-03N, longitud: 063-07W, altitud: 4 m

Observació

L'informe es va fer fa 33 minuts, a les 16:00 UTC
Vent 8 kt del Est/Sud-Est, variant entre Est/Nord-Est i Sud-Est
Temperatura 30°C
Humitat 66%
Pressió 1014 hPa
Visibilitat 10 km o més
Núvols disperses a una alçada de 1800 ft

METAR: TNCM 231600Z 11008KT 070V140 9999 SCT018 30/23 Q1013 A2993 NOSIG RMK SHRA NW/ S

Hora: 12:33 (16:33 UTC)

Pronòstic

L'informe es va fer fa 5 hores i 10 minuts, a les 11:23 UTC
Pronòstic vàlid del 23 a les 12 UTC al 24 a les 12 UTC
Vent 10 kt del Est
Visibilitat: 10 km
Núvols disperses a una alçada de 2000 ft

TAF: TNCM 231123Z 2312/2412 09010KT P6SM SCT020

Observacions i pronòstics meteorològics de més de 4000 aeroports (METAR i TAF).

Les estacions disponibles són els punts grocs i vermells al mapa.

Posi el ratolí al punt desitjat per veure el nom de l'estació.

Feu clic per veure les observacions i els pronòstics meteorològics.

Per canviar el mapa: feu clic els botons verds amb una creu de color negre per apropar; al botó verd amb un guió per allunyar la imatge; o en les fletxes verdes per a mapes adjacents.


METAR-TAF: